sensor_id;sensor_type;location;lat;lon;timestamp;P1;durP1;ratioP1;P2;durP2;ratioP2
61960;SDS011;47923;42.506;24.192;2024-03-23T00:51:37;30.08;;;19.38;;
61960;SDS011;47923;42.506;24.192;2024-03-23T00:54:03;30.98;;;18.58;;
61960;SDS011;47923;42.506;24.192;2024-03-23T00:56:28;25.95;;;18.08;;
61960;SDS011;47923;42.506;24.192;2024-03-23T00:58:54;26.55;;;16.90;;
61960;SDS011;47923;42.506;24.192;2024-03-23T01:01:19;21.80;;;14.75;;
61960;SDS011;47923;42.506;24.192;2024-03-23T01:03:45;22.88;;;13.68;;
61960;SDS011;47923;42.506;24.192;2024-03-23T01:06:11;26.95;;;17.10;;
61960;SDS011;47923;42.506;24.192;2024-03-23T01:08:36;23.00;;;14.57;;
61960;SDS011;47923;42.506;24.192;2024-03-23T01:11:02;20.38;;;12.70;;
61960;SDS011;47923;42.506;24.192;2024-03-23T01:13:28;16.80;;;10.95;;
61960;SDS011;47923;42.506;24.192;2024-03-23T01:15:54;17.10;;;10.80;;
61960;SDS011;47923;42.506;24.192;2024-03-23T01:18:20;20.85;;;12.90;;
61960;SDS011;47923;42.506;24.192;2024-03-23T01:20:46;21.67;;;12.50;;
61960;SDS011;47923;42.506;24.192;2024-03-23T01:23:12;23.52;;;14.30;;
61960;SDS011;47923;42.506;24.192;2024-03-23T01:25:38;19.88;;;11.25;;
61960;SDS011;47923;42.506;24.192;2024-03-23T01:28:04;17.15;;;11.13;;
61960;SDS011;47923;42.506;24.192;2024-03-23T01:30:31;17.55;;;11.48;;
61960;SDS011;47923;42.506;24.192;2024-03-23T01:32:57;16.45;;;10.52;;
61960;SDS011;47923;42.506;24.192;2024-03-23T01:35:22;17.58;;;10.55;;
61960;SDS011;47923;42.506;24.192;2024-03-23T01:37:48;18.00;;;9.45;;
61960;SDS011;47923;42.506;24.192;2024-03-23T01:40:13;16.40;;;9.43;;
61960;SDS011;47923;42.506;24.192;2024-03-23T01:42:39;17.50;;;10.23;;
61960;SDS011;47923;42.506;24.192;2024-03-23T01:45:08;18.30;;;10.57;;
61960;SDS011;47923;42.506;24.192;2024-03-23T01:47:34;18.55;;;11.77;;
61960;SDS011;47923;42.506;24.192;2024-03-23T01:50:00;46.70;;;33.63;;
61960;SDS011;47923;42.506;24.192;2024-03-23T01:52:26;34.30;;;25.13;;
61960;SDS011;47923;42.506;24.192;2024-03-23T01:54:55;26.23;;;19.30;;
61960;SDS011;47923;42.506;24.192;2024-03-23T01:57:21;20.60;;;14.30;;
61960;SDS011;47923;42.506;24.192;2024-03-23T01:59:47;14.50;;;8.63;;
61960;SDS011;47923;42.506;24.192;2024-03-23T02:02:12;14.88;;;9.88;;
61960;SDS011;47923;42.506;24.192;2024-03-23T02:04:38;17.50;;;10.13;;
61960;SDS011;47923;42.506;24.192;2024-03-23T02:07:04;15.55;;;9.85;;
61960;SDS011;47923;42.506;24.192;2024-03-23T02:09:31;16.20;;;9.57;;
61960;SDS011;47923;42.506;24.192;2024-03-23T02:11:57;16.83;;;9.48;;
61960;SDS011;47923;42.506;24.192;2024-03-23T02:14:23;13.85;;;8.80;;
61960;SDS011;47923;42.506;24.192;2024-03-23T02:16:48;12.88;;;7.05;;
61960;SDS011;47923;42.506;24.192;2024-03-23T02:19:15;13.93;;;8.80;;
61960;SDS011;47923;42.506;24.192;2024-03-23T02:21:40;20.52;;;11.05;;
61960;SDS011;47923;42.506;24.192;2024-03-23T02:24:06;22.33;;;12.55;;
61960;SDS011;47923;42.506;24.192;2024-03-23T02:26:31;20.85;;;12.73;;
61960;SDS011;47923;42.506;24.192;2024-03-23T02:28:57;16.33;;;10.18;;
61960;SDS011;47923;42.506;24.192;2024-03-23T02:31:23;18.30;;;10.45;;
61960;SDS011;47923;42.506;24.192;2024-03-23T02:33:48;18.75;;;10.02;;
61960;SDS011;47923;42.506;24.192;2024-03-23T02:36:13;17.17;;;10.05;;
61960;SDS011;47923;42.506;24.192;2024-03-23T02:38:39;14.70;;;8.98;;
61960;SDS011;47923;42.506;24.192;2024-03-23T02:41:04;13.40;;;8.20;;
61960;SDS011;47923;42.506;24.192;2024-03-23T02:43:30;14.35;;;9.23;;
61960;SDS011;47923;42.506;24.192;2024-03-23T02:45:56;13.05;;;8.55;;
61960;SDS011;47923;42.506;24.192;2024-03-23T02:48:21;16.42;;;10.70;;
61960;SDS011;47923;42.506;24.192;2024-03-23T02:50:47;15.85;;;10.40;;
61960;SDS011;47923;42.506;24.192;2024-03-23T02:53:12;15.23;;;9.05;;
61960;SDS011;47923;42.506;24.192;2024-03-23T02:55:38;15.75;;;10.40;;
61960;SDS011;47923;42.506;24.192;2024-03-23T02:58:03;18.33;;;10.70;;
61960;SDS011;47923;42.506;24.192;2024-03-23T03:00:29;16.73;;;11.10;;
61960;SDS011;47923;42.506;24.192;2024-03-23T03:02:54;13.85;;;9.30;;
61960;SDS011;47923;42.506;24.192;2024-03-23T03:05:20;14.02;;;8.70;;
61960;SDS011;47923;42.506;24.192;2024-03-23T03:07:46;16.85;;;11.13;;
61960;SDS011;47923;42.506;24.192;2024-03-23T03:10:11;15.57;;;10.00;;
61960;SDS011;47923;42.506;24.192;2024-03-23T03:12:37;15.82;;;8.00;;
61960;SDS011;47923;42.506;24.192;2024-03-23T03:15:03;12.15;;;7.50;;
61960;SDS011;47923;42.506;24.192;2024-03-23T03:17:30;14.23;;;7.13;;
61960;SDS011;47923;42.506;24.192;2024-03-23T03:19:55;14.05;;;8.93;;
61960;SDS011;47923;42.506;24.192;2024-03-23T03:22:21;12.30;;;7.78;;
61960;SDS011;47923;42.506;24.192;2024-03-23T03:24:47;13.52;;;8.60;;
61960;SDS011;47923;42.506;24.192;2024-03-23T03:27:13;16.27;;;10.88;;
61960;SDS011;47923;42.506;24.192;2024-03-23T03:29:38;16.15;;;10.63;;
61960;SDS011;47923;42.506;24.192;2024-03-23T03:32:04;14.30;;;8.65;;
61960;SDS011;47923;42.506;24.192;2024-03-23T03:34:29;12.98;;;7.20;;
61960;SDS011;47923;42.506;24.192;2024-03-23T03:36:56;13.32;;;7.63;;
61960;SDS011;47923;42.506;24.192;2024-03-23T03:39:22;12.82;;;7.13;;
61960;SDS011;47923;42.506;24.192;2024-03-23T03:41:48;13.68;;;7.88;;
61960;SDS011;47923;42.506;24.192;2024-03-23T03:44:14;12.45;;;7.85;;
61960;SDS011;47923;42.506;24.192;2024-03-23T03:46:39;14.68;;;8.27;;
61960;SDS011;47923;42.506;24.192;2024-03-23T03:49:05;15.95;;;10.00;;
61960;SDS011;47923;42.506;24.192;2024-03-23T03:51:30;13.60;;;8.10;;
61960;SDS011;47923;42.506;24.192;2024-03-23T03:53:56;14.57;;;9.35;;
61960;SDS011;47923;42.506;24.192;2024-03-23T03:56:21;14.90;;;9.18;;
61960;SDS011;47923;42.506;24.192;2024-03-23T03:58:47;15.80;;;8.85;;
61960;SDS011;47923;42.506;24.192;2024-03-23T04:01:13;14.20;;;8.45;;
61960;SDS011;47923;42.506;24.192;2024-03-23T04:03:38;11.63;;;7.97;;
61960;SDS011;47923;42.506;24.192;2024-03-23T04:06:08;15.65;;;9.48;;
61960;SDS011;47923;42.506;24.192;2024-03-23T04:08:34;16.27;;;9.38;;
61960;SDS011;47923;42.506;24.192;2024-03-23T04:10:59;13.98;;;8.85;;
61960;SDS011;47923;42.506;24.192;2024-03-23T04:13:25;15.27;;;8.65;;
61960;SDS011;47923;42.506;24.192;2024-03-23T04:15:53;15.57;;;9.55;;
61960;SDS011;47923;42.506;24.192;2024-03-23T04:18:22;18.88;;;12.02;;
61960;SDS011;47923;42.506;24.192;2024-03-23T04:20:48;16.27;;;9.85;;
61960;SDS011;47923;42.506;24.192;2024-03-23T04:23:14;18.17;;;11.15;;
61960;SDS011;47923;42.506;24.192;2024-03-23T04:25:40;15.68;;;10.45;;
61960;SDS011;47923;42.506;24.192;2024-03-23T04:28:05;16.23;;;9.50;;
61960;SDS011;47923;42.506;24.192;2024-03-23T04:30:31;16.80;;;10.13;;
61960;SDS011;47923;42.506;24.192;2024-03-23T04:32:57;15.63;;;10.13;;
61960;SDS011;47923;42.506;24.192;2024-03-23T04:35:23;17.65;;;11.20;;
61960;SDS011;47923;42.506;24.192;2024-03-23T04:37:50;17.63;;;9.93;;
61960;SDS011;47923;42.506;24.192;2024-03-23T04:40:20;17.33;;;10.02;;
61960;SDS011;47923;42.506;24.192;2024-03-23T04:42:46;18.98;;;11.23;;
61960;SDS011;47923;42.506;24.192;2024-03-23T04:45:12;19.65;;;12.07;;
61960;SDS011;47923;42.506;24.192;2024-03-23T04:47:37;18.27;;;12.13;;
61960;SDS011;47923;42.506;24.192;2024-03-23T04:50:03;31.70;;;23.98;;
61960;SDS011;47923;42.506;24.192;2024-03-23T04:52:30;36.72;;;27.10;;
61960;SDS011;47923;42.506;24.192;2024-03-23T04:54:55;31.55;;;23.83;;
61960;SDS011;47923;42.506;24.192;2024-03-23T04:57:21;24.88;;;17.33;;
61960;SDS011;47923;42.506;24.192;2024-03-23T04:59:47;27.23;;;18.67;;
61960;SDS011;47923;42.506;24.192;2024-03-23T05:02:12;22.85;;;17.00;;
61960;SDS011;47923;42.506;24.192;2024-03-23T05:04:38;30.42;;;20.15;;
61960;SDS011;47923;42.506;24.192;2024-03-23T05:07:05;22.00;;;14.40;;
61960;SDS011;47923;42.506;24.192;2024-03-23T05:09:31;21.60;;;15.55;;
61960;SDS011;47923;42.506;24.192;2024-03-23T05:11:58;21.83;;;15.40;;
61960;SDS011;47923;42.506;24.192;2024-03-23T05:14:25;26.08;;;18.02;;
61960;SDS011;47923;42.506;24.192;2024-03-23T05:16:51;25.38;;;18.67;;
61960;SDS011;47923;42.506;24.192;2024-03-23T05:19:17;27.77;;;22.02;;
61960;SDS011;47923;42.506;24.192;2024-03-23T05:21:42;35.75;;;26.40;;
61960;SDS011;47923;42.506;24.192;2024-03-23T05:24:08;42.75;;;33.60;;
61960;SDS011;47923;42.506;24.192;2024-03-23T05:26:33;40.78;;;27.17;;
61960;SDS011;47923;42.506;24.192;2024-03-23T05:29:00;36.35;;;26.13;;
61960;SDS011;47923;42.506;24.192;2024-03-23T05:31:27;41.67;;;25.42;;
61960;SDS011;47923;42.506;24.192;2024-03-23T05:33:53;40.20;;;23.88;;
61960;SDS011;47923;42.506;24.192;2024-03-23T05:36:19;39.50;;;25.05;;
61960;SDS011;47923;42.506;24.192;2024-03-23T05:38:45;39.50;;;24.75;;
61960;SDS011;47923;42.506;24.192;2024-03-23T05:41:10;35.58;;;24.85;;
61960;SDS011;47923;42.506;24.192;2024-03-23T05:43:36;32.55;;;24.30;;
61960;SDS011;47923;42.506;24.192;2024-03-23T05:46:02;31.23;;;24.45;;
61960;SDS011;47923;42.506;24.192;2024-03-23T05:48:27;32.38;;;26.02;;
61960;SDS011;47923;42.506;24.192;2024-03-23T05:50:53;35.97;;;29.65;;
61960;SDS011;47923;42.506;24.192;2024-03-23T05:53:19;37.83;;;30.27;;
61960;SDS011;47923;42.506;24.192;2024-03-23T05:55:48;34.20;;;26.63;;
61960;SDS011;47923;42.506;24.192;2024-03-23T05:58:14;20.85;;;17.38;;
61960;SDS011;47923;42.506;24.192;2024-03-23T06:00:41;24.95;;;19.30;;
61960;SDS011;47923;42.506;24.192;2024-03-23T06:03:07;24.00;;;18.10;;
61960;SDS011;47923;42.506;24.192;2024-03-23T06:05:33;24.60;;;18.75;;
61960;SDS011;47923;42.506;24.192;2024-03-23T06:07:58;56.53;;;48.47;;
61960;SDS011;47923;42.506;24.192;2024-03-23T06:10:23;54.85;;;47.28;;
61960;SDS011;47923;42.506;24.192;2024-03-23T06:12:49;24.92;;;19.25;;
61960;SDS011;47923;42.506;24.192;2024-03-23T06:15:17;25.73;;;21.35;;
61960;SDS011;47923;42.506;24.192;2024-03-23T06:17:43;29.35;;;25.15;;
61960;SDS011;47923;42.506;24.192;2024-03-23T06:20:09;26.08;;;22.05;;
61960;SDS011;47923;42.506;24.192;2024-03-23T06:22:35;25.88;;;22.00;;
61960;SDS011;47923;42.506;24.192;2024-03-23T06:25:01;23.38;;;19.65;;
61960;SDS011;47923;42.506;24.192;2024-03-23T06:27:26;22.05;;;17.77;;
61960;SDS011;47923;42.506;24.192;2024-03-23T06:29:51;20.58;;;16.70;;
61960;SDS011;47923;42.506;24.192;2024-03-23T06:32:17;20.38;;;17.80;;
61960;SDS011;47923;42.506;24.192;2024-03-23T06:34:43;23.85;;;16.83;;
61960;SDS011;47923;42.506;24.192;2024-03-23T06:37:09;18.40;;;15.20;;
61960;SDS011;47923;42.506;24.192;2024-03-23T06:39:35;19.58;;;16.55;;
61960;SDS011;47923;42.506;24.192;2024-03-23T06:42:01;21.48;;;15.27;;
61960;SDS011;47923;42.506;24.192;2024-03-23T06:44:27;16.30;;;12.45;;
61960;SDS011;47923;42.506;24.192;2024-03-23T06:46:52;17.13;;;12.40;;
61960;SDS011;47923;42.506;24.192;2024-03-23T06:49:18;17.33;;;12.88;;
61960;SDS011;47923;42.506;24.192;2024-03-23T06:51:44;14.90;;;11.50;;
61960;SDS011;47923;42.506;24.192;2024-03-23T06:54:10;25.27;;;13.63;;
61960;SDS011;47923;42.506;24.192;2024-03-23T06:56:35;29.15;;;23.17;;
61960;SDS011;47923;42.506;24.192;2024-03-23T06:59:01;22.48;;;15.88;;
61960;SDS011;47923;42.506;24.192;2024-03-23T07:01:26;17.27;;;14.25;;
61960;SDS011;47923;42.506;24.192;2024-03-23T07:03:53;16.45;;;13.30;;
61960;SDS011;47923;42.506;24.192;2024-03-23T07:06:19;17.25;;;13.05;;
61960;SDS011;47923;42.506;24.192;2024-03-23T07:08:44;32.10;;;28.33;;
61960;SDS011;47923;42.506;24.192;2024-03-23T07:11:09;36.25;;;32.33;;
61960;SDS011;47923;42.506;24.192;2024-03-23T07:13:35;35.70;;;28.77;;
61960;SDS011;47923;42.506;24.192;2024-03-23T07:16:00;29.27;;;25.95;;
61960;SDS011;47923;42.506;24.192;2024-03-23T07:18:26;19.80;;;16.40;;
61960;SDS011;47923;42.506;24.192;2024-03-23T07:20:55;20.27;;;15.00;;
61960;SDS011;47923;42.506;24.192;2024-03-23T07:23:21;16.58;;;13.10;;
61960;SDS011;47923;42.506;24.192;2024-03-23T07:28:27;17.98;;;12.23;;
61960;SDS011;47923;42.506;24.192;2024-03-23T07:31:10;18.83;;;13.07;;
61960;SDS011;47923;42.506;24.192;2024-03-23T07:33:46;14.10;;;8.80;;
61960;SDS011;47923;42.506;24.192;2024-03-23T07:36:13;13.95;;;7.68;;
61960;SDS011;47923;42.506;24.192;2024-03-23T07:38:42;9.45;;;6.13;;
61960;SDS011;47923;42.506;24.192;2024-03-23T07:41:19;7.97;;;4.80;;
61960;SDS011;47923;42.506;24.192;2024-03-23T07:43:46;7.72;;;4.13;;
61960;SDS011;47923;42.506;24.192;2024-03-23T07:46:12;7.70;;;3.65;;
61960;SDS011;47923;42.506;24.192;2024-03-23T07:48:39;6.00;;;4.00;;
61960;SDS011;47923;42.506;24.192;2024-03-23T07:51:08;8.00;;;4.85;;
61960;SDS011;47923;42.506;24.192;2024-03-23T07:53:35;10.38;;;5.30;;
61960;SDS011;47923;42.506;24.192;2024-03-23T07:56:03;7.28;;;4.35;;
61960;SDS011;47923;42.506;24.192;2024-03-23T07:58:31;12.32;;;4.90;;
61960;SDS011;47923;42.506;24.192;2024-03-23T08:01:01;9.45;;;5.32;;
61960;SDS011;47923;42.506;24.192;2024-03-23T08:03:29;8.30;;;4.82;;
61960;SDS011;47923;42.506;24.192;2024-03-23T08:05:55;7.68;;;5.07;;
61960;SDS011;47923;42.506;24.192;2024-03-23T08:08:20;7.70;;;4.65;;
61960;SDS011;47923;42.506;24.192;2024-03-23T08:10:49;8.43;;;5.10;;
61960;SDS011;47923;42.506;24.192;2024-03-23T08:13:15;9.38;;;5.50;;
61960;SDS011;47923;42.506;24.192;2024-03-23T08:15:41;10.02;;;5.20;;
61960;SDS011;47923;42.506;24.192;2024-03-23T08:18:07;9.27;;;5.50;;
61960;SDS011;47923;42.506;24.192;2024-03-23T08:20:32;9.30;;;5.28;;
61960;SDS011;47923;42.506;24.192;2024-03-23T08:22:58;7.68;;;4.38;;
61960;SDS011;47923;42.506;24.192;2024-03-23T08:25:23;9.05;;;5.82;;
61960;SDS011;47923;42.506;24.192;2024-03-23T08:27:49;9.63;;;5.30;;
61960;SDS011;47923;42.506;24.192;2024-03-23T08:30:14;9.95;;;6.32;;
61960;SDS011;47923;42.506;24.192;2024-03-23T08:32:40;7.68;;;4.00;;
61960;SDS011;47923;42.506;24.192;2024-03-23T08:35:05;7.88;;;3.47;;
61960;SDS011;47923;42.506;24.192;2024-03-23T08:37:31;8.13;;;4.47;;
61960;SDS011;47923;42.506;24.192;2024-03-23T08:39:57;8.60;;;4.28;;
61960;SDS011;47923;42.506;24.192;2024-03-23T08:42:22;6.30;;;3.45;;
61960;SDS011;47923;42.506;24.192;2024-03-23T08:44:48;7.28;;;3.78;;
61960;SDS011;47923;42.506;24.192;2024-03-23T08:47:16;5.70;;;3.00;;
61960;SDS011;47923;42.506;24.192;2024-03-23T08:49:41;5.85;;;2.70;;
61960;SDS011;47923;42.506;24.192;2024-03-23T08:52:07;5.20;;;2.63;;
61960;SDS011;47923;42.506;24.192;2024-03-23T08:54:33;5.38;;;3.17;;
61960;SDS011;47923;42.506;24.192;2024-03-23T08:56:59;6.18;;;2.80;;
61960;SDS011;47923;42.506;24.192;2024-03-23T08:59:24;4.80;;;2.92;;
61960;SDS011;47923;42.506;24.192;2024-03-23T09:01:50;6.63;;;3.45;;
61960;SDS011;47923;42.506;24.192;2024-03-23T09:04:15;5.10;;;3.28;;
61960;SDS011;47923;42.506;24.192;2024-03-23T09:06:44;6.55;;;3.33;;
61960;SDS011;47923;42.506;24.192;2024-03-23T09:09:09;5.25;;;3.28;;
61960;SDS011;47923;42.506;24.192;2024-03-23T09:11:35;5.68;;;3.05;;
61960;SDS011;47923;42.506;24.192;2024-03-23T09:14:02;6.57;;;3.10;;
61960;SDS011;47923;42.506;24.192;2024-03-23T09:16:28;6.38;;;3.30;;
61960;SDS011;47923;42.506;24.192;2024-03-23T09:18:53;5.32;;;2.83;;
61960;SDS011;47923;42.506;24.192;2024-03-23T09:21:19;9.48;;;3.97;;
61960;SDS011;47923;42.506;24.192;2024-03-23T09:23:44;5.97;;;3.08;;
61960;SDS011;47923;42.506;24.192;2024-03-23T09:26:10;5.63;;;2.90;;
61960;SDS011;47923;42.506;24.192;2024-03-23T09:28:36;4.22;;;2.92;;
61960;SDS011;47923;42.506;24.192;2024-03-23T09:31:02;4.82;;;2.65;;
61960;SDS011;47923;42.506;24.192;2024-03-23T09:33:28;5.38;;;3.20;;
61960;SDS011;47923;42.506;24.192;2024-03-23T09:35:54;8.25;;;3.90;;
61960;SDS011;47923;42.506;24.192;2024-03-23T09:38:21;6.97;;;3.20;;
61960;SDS011;47923;42.506;24.192;2024-03-23T09:40:47;7.88;;;3.40;;
61960;SDS011;47923;42.506;24.192;2024-03-23T09:43:17;6.97;;;3.33;;
61960;SDS011;47923;42.506;24.192;2024-03-23T09:45:42;5.45;;;3.08;;
61960;SDS011;47923;42.506;24.192;2024-03-23T09:48:10;5.38;;;3.03;;
61960;SDS011;47923;42.506;24.192;2024-03-23T09:50:45;5.70;;;2.88;;
61960;SDS011;47923;42.506;24.192;2024-03-23T09:53:12;6.55;;;3.50;;
61960;SDS011;47923;42.506;24.192;2024-03-23T09:55:38;6.85;;;3.20;;
61960;SDS011;47923;42.506;24.192;2024-03-23T09:58:11;5.18;;;3.00;;
61960;SDS011;47923;42.506;24.192;2024-03-23T10:00:37;6.28;;;3.60;;
61960;SDS011;47923;42.506;24.192;2024-03-23T10:03:03;6.53;;;3.38;;
61960;SDS011;47923;42.506;24.192;2024-03-23T10:05:31;5.82;;;3.55;;
61960;SDS011;47923;42.506;24.192;2024-03-23T10:07:59;12.15;;;5.90;;
61960;SDS011;47923;42.506;24.192;2024-03-23T10:10:43;6.80;;;3.17;;
61960;SDS011;47923;42.506;24.192;2024-03-23T10:13:09;5.70;;;3.22;;
61960;SDS011;47923;42.506;24.192;2024-03-23T10:15:36;7.60;;;3.17;;
61960;SDS011;47923;42.506;24.192;2024-03-23T10:20:43;8.80;;;3.72;;
61960;SDS011;47923;42.506;24.192;2024-03-23T10:23:15;6.45;;;3.47;;
61960;SDS011;47923;42.506;24.192;2024-03-23T10:25:41;5.85;;;2.85;;
61960;SDS011;47923;42.506;24.192;2024-03-23T10:28:07;5.90;;;3.17;;
61960;SDS011;47923;42.506;24.192;2024-03-23T10:30:33;5.95;;;3.50;;
61960;SDS011;47923;42.506;24.192;2024-03-23T10:33:08;5.28;;;3.10;;
61960;SDS011;47923;42.506;24.192;2024-03-23T10:35:34;6.45;;;3.50;;
61960;SDS011;47923;42.506;24.192;2024-03-23T10:38:00;5.18;;;2.85;;
61960;SDS011;47923;42.506;24.192;2024-03-23T10:40:26;6.95;;;3.28;;
61960;SDS011;47923;42.506;24.192;2024-03-23T10:42:52;7.75;;;3.53;;
61960;SDS011;47923;42.506;24.192;2024-03-23T10:45:20;7.32;;;3.05;;
61960;SDS011;47923;42.506;24.192;2024-03-23T10:47:46;5.72;;;3.05;;
61960;SDS011;47923;42.506;24.192;2024-03-23T10:50:12;5.85;;;3.53;;
61960;SDS011;47923;42.506;24.192;2024-03-23T10:52:38;7.68;;;3.42;;
61960;SDS011;47923;42.506;24.192;2024-03-23T10:55:04;7.95;;;3.47;;
61960;SDS011;47923;42.506;24.192;2024-03-23T10:57:41;5.72;;;3.08;;
61960;SDS011;47923;42.506;24.192;2024-03-23T11:00:16;9.32;;;3.70;;
61960;SDS011;47923;42.506;24.192;2024-03-23T11:02:42;10.27;;;3.70;;
61960;SDS011;47923;42.506;24.192;2024-03-23T11:07:52;6.63;;;3.42;;
61960;SDS011;47923;42.506;24.192;2024-03-23T11:10:24;7.72;;;3.38;;
61960;SDS011;47923;42.506;24.192;2024-03-23T11:12:55;6.43;;;3.20;;
61960;SDS011;47923;42.506;24.192;2024-03-23T11:15:21;8.77;;;3.67;;
61960;SDS011;47923;42.506;24.192;2024-03-23T11:18:06;8.48;;;4.00;;
61960;SDS011;47923;42.506;24.192;2024-03-23T11:20:35;6.45;;;3.42;;
61960;SDS011;47923;42.506;24.192;2024-03-23T11:23:01;9.55;;;4.43;;
61960;SDS011;47923;42.506;24.192;2024-03-23T11:25:27;6.78;;;3.65;;
61960;SDS011;47923;42.506;24.192;2024-03-23T11:27:54;9.18;;;4.53;;
61960;SDS011;47923;42.506;24.192;2024-03-23T11:30:23;6.72;;;3.72;;
61960;SDS011;47923;42.506;24.192;2024-03-23T11:32:52;8.50;;;3.80;;
61960;SDS011;47923;42.506;24.192;2024-03-23T11:35:29;8.57;;;3.85;;
61960;SDS011;47923;42.506;24.192;2024-03-23T11:38:12;10.13;;;3.28;;
61960;SDS011;47923;42.506;24.192;2024-03-23T11:40:45;7.97;;;3.70;;
61960;SDS011;47923;42.506;24.192;2024-03-23T11:43:15;7.53;;;3.80;;
61960;SDS011;47923;42.506;24.192;2024-03-23T11:45:46;7.18;;;3.40;;
61960;SDS011;47923;42.506;24.192;2024-03-23T11:48:18;8.85;;;3.28;;
61960;SDS011;47923;42.506;24.192;2024-03-23T11:50:46;8.57;;;4.00;;
61960;SDS011;47923;42.506;24.192;2024-03-23T11:53:13;6.93;;;3.95;;
61960;SDS011;47923;42.506;24.192;2024-03-23T11:55:43;7.82;;;3.42;;
61960;SDS011;47923;42.506;24.192;2024-03-23T11:58:22;6.30;;;3.55;;
61960;SDS011;47923;42.506;24.192;2024-03-23T12:00:49;8.10;;;3.58;;
61960;SDS011;47923;42.506;24.192;2024-03-23T12:03:18;9.85;;;3.75;;
61960;SDS011;47923;42.506;24.192;2024-03-23T12:05:50;6.88;;;3.25;;
61960;SDS011;47923;42.506;24.192;2024-03-23T12:08:23;7.32;;;3.65;;
61960;SDS011;47923;42.506;24.192;2024-03-23T12:11:05;6.20;;;3.20;;
61960;SDS011;47923;42.506;24.192;2024-03-23T12:13:36;6.78;;;3.33;;
61960;SDS011;47923;42.506;24.192;2024-03-23T12:16:35;8.70;;;4.68;;
61960;SDS011;47923;42.506;24.192;2024-03-23T12:18:54;8.20;;;3.60;;
61960;SDS011;47923;42.506;24.192;2024-03-23T12:21:30;6.55;;;3.53;;
61960;SDS011;47923;42.506;24.192;2024-03-23T12:23:56;6.93;;;3.65;;
61960;SDS011;47923;42.506;24.192;2024-03-23T12:26:21;6.05;;;3.05;;
61960;SDS011;47923;42.506;24.192;2024-03-23T12:28:48;6.88;;;3.97;;
61960;SDS011;47923;42.506;24.192;2024-03-23T12:31:13;7.03;;;3.67;;
61960;SDS011;47923;42.506;24.192;2024-03-23T12:33:39;7.63;;;3.83;;
61960;SDS011;47923;42.506;24.192;2024-03-23T12:36:04;7.50;;;3.63;;
61960;SDS011;47923;42.506;24.192;2024-03-23T12:38:30;5.95;;;3.03;;
61960;SDS011;47923;42.506;24.192;2024-03-23T12:40:55;5.78;;;2.95;;
61960;SDS011;47923;42.506;24.192;2024-03-23T12:43:21;6.90;;;3.17;;
61960;SDS011;47923;42.506;24.192;2024-03-23T12:45:47;8.07;;;3.90;;
61960;SDS011;47923;42.506;24.192;2024-03-23T12:48:13;5.72;;;2.70;;
61960;SDS011;47923;42.506;24.192;2024-03-23T12:50:39;7.05;;;2.70;;
61960;SDS011;47923;42.506;24.192;2024-03-23T12:53:04;8.02;;;3.20;;
61960;SDS011;47923;42.506;24.192;2024-03-23T12:55:30;5.82;;;3.15;;
61960;SDS011;47923;42.506;24.192;2024-03-23T12:57:55;10.07;;;4.47;;
61960;SDS011;47923;42.506;24.192;2024-03-23T13:00:21;8.02;;;3.45;;
61960;SDS011;47923;42.506;24.192;2024-03-23T13:02:47;5.45;;;2.90;;
61960;SDS011;47923;42.506;24.192;2024-03-23T13:05:12;5.60;;;2.80;;
61960;SDS011;47923;42.506;24.192;2024-03-23T13:07:38;6.35;;;3.25;;
61960;SDS011;47923;42.506;24.192;2024-03-23T13:10:04;8.32;;;3.33;;
61960;SDS011;47923;42.506;24.192;2024-03-23T13:12:30;6.95;;;3.00;;
61960;SDS011;47923;42.506;24.192;2024-03-23T13:14:56;9.55;;;5.35;;
61960;SDS011;47923;42.506;24.192;2024-03-23T13:17:22;6.15;;;3.30;;
61960;SDS011;47923;42.506;24.192;2024-03-23T13:19:47;8.68;;;4.18;;
61960;SDS011;47923;42.506;24.192;2024-03-23T13:22:13;7.15;;;4.47;;
61960;SDS011;47923;42.506;24.192;2024-03-23T13:24:40;8.45;;;3.13;;
61960;SDS011;47923;42.506;24.192;2024-03-23T13:27:05;7.53;;;3.72;;
61960;SDS011;47923;42.506;24.192;2024-03-23T13:29:32;7.00;;;3.80;;
61960;SDS011;47923;42.506;24.192;2024-03-23T13:31:59;8.77;;;4.75;;
61960;SDS011;47923;42.506;24.192;2024-03-23T13:34:24;6.60;;;3.28;;
61960;SDS011;47923;42.506;24.192;2024-03-23T13:36:50;6.05;;;3.22;;
61960;SDS011;47923;42.506;24.192;2024-03-23T13:39:16;9.82;;;5.03;;
61960;SDS011;47923;42.506;24.192;2024-03-23T13:41:45;7.60;;;4.32;;
61960;SDS011;47923;42.506;24.192;2024-03-23T13:44:11;8.68;;;4.35;;
61960;SDS011;47923;42.506;24.192;2024-03-23T13:46:38;10.20;;;4.13;;
61960;SDS011;47923;42.506;24.192;2024-03-23T13:49:05;8.48;;;4.25;;
61960;SDS011;47923;42.506;24.192;2024-03-23T13:51:31;8.00;;;3.35;;
61960;SDS011;47923;42.506;24.192;2024-03-23T13:53:56;10.40;;;3.75;;
61960;SDS011;47923;42.506;24.192;2024-03-23T13:56:25;7.47;;;3.15;;
61960;SDS011;47923;42.506;24.192;2024-03-23T13:58:50;7.95;;;3.42;;
61960;SDS011;47923;42.506;24.192;2024-03-23T14:01:16;7.80;;;3.60;;
61960;SDS011;47923;42.506;24.192;2024-03-23T14:03:43;8.90;;;3.90;;
61960;SDS011;47923;42.506;24.192;2024-03-23T14:06:09;7.70;;;3.20;;
61960;SDS011;47923;42.506;24.192;2024-03-23T14:08:36;10.43;;;4.03;;
61960;SDS011;47923;42.506;24.192;2024-03-23T14:11:05;9.25;;;4.25;;
61960;SDS011;47923;42.506;24.192;2024-03-23T14:13:31;6.30;;;3.13;;
61960;SDS011;47923;42.506;24.192;2024-03-23T14:15:56;5.32;;;2.90;;
61960;SDS011;47923;42.506;24.192;2024-03-23T14:18:22;8.32;;;4.38;;
61960;SDS011;47923;42.506;24.192;2024-03-23T14:20:48;7.63;;;3.92;;
61960;SDS011;47923;42.506;24.192;2024-03-23T14:23:14;7.78;;;3.03;;
61960;SDS011;47923;42.506;24.192;2024-03-23T14:25:39;6.45;;;3.47;;
61960;SDS011;47923;42.506;24.192;2024-03-23T14:28:05;8.27;;;3.60;;
61960;SDS011;47923;42.506;24.192;2024-03-23T14:30:31;6.80;;;3.58;;
61960;SDS011;47923;42.506;24.192;2024-03-23T14:32:56;9.93;;;4.70;;
61960;SDS011;47923;42.506;24.192;2024-03-23T14:35:22;7.50;;;3.50;;
61960;SDS011;47923;42.506;24.192;2024-03-23T14:37:48;7.00;;;3.85;;
61960;SDS011;47923;42.506;24.192;2024-03-23T14:40:14;7.20;;;3.78;;
61960;SDS011;47923;42.506;24.192;2024-03-23T14:42:40;9.65;;;4.13;;
61960;SDS011;47923;42.506;24.192;2024-03-23T14:45:06;6.82;;;3.10;;
61960;SDS011;47923;42.506;24.192;2024-03-23T14:47:32;5.30;;;3.08;;
61960;SDS011;47923;42.506;24.192;2024-03-23T14:49:57;6.60;;;3.10;;
61960;SDS011;47923;42.506;24.192;2024-03-23T14:52:23;7.20;;;3.55;;
61960;SDS011;47923;42.506;24.192;2024-03-23T14:54:49;7.20;;;3.95;;
61960;SDS011;47923;42.506;24.192;2024-03-23T14:57:15;7.55;;;3.75;;
61960;SDS011;47923;42.506;24.192;2024-03-23T14:59:40;8.63;;;4.60;;
61960;SDS011;47923;42.506;24.192;2024-03-23T15:02:06;11.25;;;4.65;;
61960;SDS011;47923;42.506;24.192;2024-03-23T15:04:33;10.50;;;3.30;;
61960;SDS011;47923;42.506;24.192;2024-03-23T15:06:58;6.10;;;3.03;;
61960;SDS011;47923;42.506;24.192;2024-03-23T15:09:24;8.98;;;4.35;;
61960;SDS011;47923;42.506;24.192;2024-03-23T15:11:50;8.98;;;4.47;;
61960;SDS011;47923;42.506;24.192;2024-03-23T15:14:15;8.73;;;4.10;;
61960;SDS011;47923;42.506;24.192;2024-03-23T15:16:40;10.05;;;4.10;;
61960;SDS011;47923;42.506;24.192;2024-03-23T15:19:07;12.82;;;6.45;;